createdAt,value
2023-03-19T00:01:48.529Z,64.99
2023-03-19T00:04:16.266Z,65.03
2023-03-19T00:06:43.385Z,65.10
2023-03-19T00:09:09.853Z,65.29
2023-03-19T00:11:36.376Z,65.56
2023-03-19T00:14:02.714Z,65.59
2023-03-19T00:16:29.105Z,65.63
2023-03-19T00:18:55.448Z,65.92
2023-03-19T00:21:24.203Z,66.18
2023-03-19T00:23:52.153Z,66.21
2023-03-19T00:26:18.998Z,66.43
2023-03-19T00:28:45.386Z,66.48
2023-03-19T00:31:15.143Z,66.46
2023-03-19T00:33:42.753Z,66.74
2023-03-19T00:36:10.843Z,66.51
2023-03-19T00:38:37.186Z,66.43
2023-03-19T00:41:05.145Z,66.63
2023-03-19T00:43:32.191Z,66.67
2023-03-19T00:45:58.823Z,66.50
2023-03-19T00:48:25.562Z,66.47
2023-03-19T00:50:52.085Z,66.38
2023-03-19T00:53:19.125Z,66.47
2023-03-19T00:55:46.200Z,66.35
2023-03-19T00:58:12.706Z,66.20
2023-03-19T01:00:39.292Z,66.27
2023-03-19T01:03:06.596Z,66.00
2023-03-19T01:05:36.231Z,66.00
2023-03-19T01:08:02.735Z,66.03
2023-03-19T01:10:32.960Z,66.11
2023-03-19T01:12:59.499Z,66.12
2023-03-19T01:15:26.155Z,66.35
2023-03-19T01:17:52.493Z,66.42
2023-03-19T01:20:19.103Z,66.56
2023-03-19T01:22:46.065Z,66.41
2023-03-19T01:25:14.221Z,66.10
2023-03-19T01:27:40.749Z,66.40
2023-03-19T01:30:07.820Z,66.58
2023-03-19T01:32:34.276Z,66.68
2023-03-19T01:35:01.010Z,66.73
2023-03-19T01:37:28.220Z,66.45
2023-03-19T01:39:54.662Z,66.39
2023-03-19T01:42:21.471Z,66.45
2023-03-19T01:44:47.859Z,66.54
2023-03-19T01:47:38.945Z,66.15
2023-03-19T01:50:06.194Z,66.44
2023-03-19T01:52:34.590Z,66.42
2023-03-19T01:55:05.003Z,66.82
2023-03-19T01:57:32.398Z,66.30
2023-03-19T02:00:01.653Z,66.50
2023-03-19T02:02:35.989Z,66.53
2023-03-19T02:05:12.585Z,66.52
2023-03-19T02:07:42.470Z,66.42
2023-03-19T02:10:12.397Z,66.43
2023-03-19T02:12:38.931Z,66.68
2023-03-19T02:15:07.218Z,66.83
2023-03-19T02:17:34.471Z,66.68
2023-03-19T02:20:08.681Z,66.49
2023-03-19T02:22:41.081Z,66.47
2023-03-19T02:25:16.573Z,66.52
2023-03-19T02:27:43.725Z,66.67
2023-03-19T02:30:32.626Z,66.49
2023-03-19T02:32:59.275Z,67.03
2023-03-19T02:35:30.879Z,66.63
2023-03-19T02:37:57.242Z,66.51
2023-03-19T02:40:29.360Z,66.19
2023-03-19T02:42:55.820Z,66.31
2023-03-19T02:45:24.834Z,66.05
2023-03-19T02:47:51.435Z,66.17
2023-03-19T02:50:17.776Z,66.00
2023-03-19T02:52:44.119Z,65.95
2023-03-19T02:55:10.551Z,65.68
2023-03-19T02:57:36.886Z,65.94
2023-03-19T03:00:05.074Z,65.40
2023-03-19T03:02:31.660Z,65.66
2023-03-19T03:04:58.038Z,65.57
2023-03-19T03:07:24.437Z,65.69
2023-03-19T03:09:51.080Z,65.57
2023-03-19T03:12:17.418Z,65.48
2023-03-19T03:14:43.800Z,65.68
2023-03-19T03:17:10.301Z,65.76
2023-03-19T03:19:36.725Z,65.81
2023-03-19T03:22:03.295Z,66.00
2023-03-19T03:24:29.905Z,66.16
2023-03-19T03:26:56.248Z,66.11
2023-03-19T03:29:22.737Z,66.20
2023-03-19T03:31:49.253Z,66.19
2023-03-19T03:34:15.838Z,66.25
2023-03-19T03:36:42.204Z,66.30
2023-03-19T03:39:08.652Z,66.06
2023-03-19T03:41:35.054Z,66.03
2023-03-19T03:44:01.400Z,66.03
2023-03-19T03:46:28.001Z,65.75
2023-03-19T03:48:54.448Z,65.92
2023-03-19T03:51:22.115Z,65.77
2023-03-19T03:53:48.584Z,65.48
2023-03-19T03:56:15.031Z,65.86
2023-03-19T03:58:41.591Z,66.02
2023-03-19T04:01:08.863Z,66.16
2023-03-19T04:03:35.547Z,66.06
2023-03-19T04:06:01.950Z,66.15
2023-03-19T04:08:28.332Z,66.13
2023-03-19T04:10:54.713Z,66.22
2023-03-19T04:13:21.500Z,66.12
2023-03-19T04:15:48.614Z,66.23
2023-03-19T04:18:15.615Z,66.15
2023-03-19T04:20:41.987Z,66.66
2023-03-19T04:23:08.384Z,66.01
2023-03-19T04:25:34.979Z,66.24
2023-03-19T04:28:01.368Z,66.09
2023-03-19T04:30:28.121Z,66.23
2023-03-19T04:32:54.724Z,66.05
2023-03-19T04:35:21.473Z,66.00
2023-03-19T04:37:48.737Z,66.04
2023-03-19T04:40:16.945Z,66.14
2023-03-19T04:42:44.599Z,66.01
2023-03-19T04:45:11.457Z,66.04
2023-03-19T04:47:37.838Z,66.02
2023-03-19T04:50:05.597Z,66.08
2023-03-19T04:52:33.280Z,65.89
2023-03-19T04:54:59.592Z,65.98
2023-03-19T04:57:25.918Z,65.95
2023-03-19T04:59:52.319Z,65.94
2023-03-19T05:02:19.212Z,66.10
2023-03-19T05:04:45.667Z,65.91
2023-03-19T05:07:12.431Z,65.87
2023-03-19T05:09:39.057Z,65.77
2023-03-19T05:12:05.953Z,65.79
2023-03-19T05:14:32.524Z,65.92
2023-03-19T05:16:58.907Z,65.62
2023-03-19T05:19:25.637Z,65.48
2023-03-19T05:21:52.005Z,65.44
2023-03-19T05:24:18.348Z,65.41
2023-03-19T05:26:44.698Z,65.34
2023-03-19T05:29:11.914Z,65.31
2023-03-19T05:31:38.596Z,65.48
2023-03-19T05:34:05.083Z,65.36
2023-03-19T05:36:31.459Z,65.36
2023-03-19T05:38:57.880Z,64.90
2023-03-19T05:41:24.340Z,65.18
2023-03-19T05:43:51.208Z,65.19
2023-03-19T05:46:17.642Z,65.03
2023-03-19T05:48:44.057Z,64.96
2023-03-19T05:51:11.543Z,65.06
2023-03-19T05:53:38.041Z,64.98
2023-03-19T05:56:04.651Z,64.96
2023-03-19T05:58:31.000Z,64.91
2023-03-19T06:00:57.728Z,64.98
2023-03-19T06:03:24.901Z,64.86
2023-03-19T06:05:51.747Z,64.74
2023-03-19T06:08:18.822Z,64.70
2023-03-19T06:10:45.644Z,64.65
2023-03-19T06:13:12.093Z,64.71
2023-03-19T06:15:38.750Z,64.54
2023-03-19T06:18:05.248Z,64.52
2023-03-19T06:20:32.013Z,64.54
2023-03-19T06:22:58.578Z,64.46
2023-03-19T06:25:24.964Z,64.50
2023-03-19T06:27:51.400Z,64.39
2023-03-19T06:30:17.846Z,64.29
2023-03-19T06:32:44.340Z,64.20
2023-03-19T06:35:11.206Z,64.20
2023-03-19T06:37:37.712Z,64.15
2023-03-19T06:40:05.147Z,64.32
2023-03-19T06:42:31.592Z,64.14
2023-03-19T06:44:57.945Z,64.19
2023-03-19T06:47:24.367Z,64.09
2023-03-19T06:49:51.318Z,64.27
2023-03-19T06:52:17.635Z,64.05
2023-03-19T06:54:44.005Z,64.25
2023-03-19T06:57:10.388Z,64.01
2023-03-19T06:59:36.787Z,64.07
2023-03-19T07:02:03.598Z,64.23
2023-03-19T07:04:30.423Z,64.03
2023-03-19T07:06:56.845Z,63.99
2023-03-19T07:09:23.441Z,63.84
2023-03-19T07:11:49.753Z,63.70
2023-03-19T07:14:16.436Z,64.00
2023-03-19T07:16:42.806Z,64.17
2023-03-19T07:19:09.174Z,64.09
2023-03-19T07:21:35.919Z,63.92
2023-03-19T07:24:02.385Z,63.64
2023-03-19T07:26:28.736Z,63.20
2023-03-19T07:28:55.563Z,63.20
2023-03-19T07:31:22.124Z,63.25
2023-03-19T07:33:48.540Z,63.42
2023-03-19T07:36:14.956Z,63.31
2023-03-19T07:38:41.359Z,62.89
2023-03-19T07:41:07.927Z,62.61
2023-03-19T07:43:34.355Z,62.10
2023-03-19T07:46:01.442Z,62.02
2023-03-19T07:48:27.960Z,62.05
2023-03-19T07:50:54.393Z,61.62
2023-03-19T07:53:20.989Z,61.15
2023-03-19T07:55:47.982Z,61.27
2023-03-19T07:58:14.801Z,60.70
2023-03-19T08:00:41.433Z,60.29
2023-03-19T08:03:08.084Z,60.35
2023-03-19T08:05:34.490Z,60.78
2023-03-19T08:08:01.186Z,60.55
2023-03-19T08:10:27.577Z,60.57
2023-03-19T08:12:54.145Z,60.16
2023-03-19T08:15:20.589Z,60.61
2023-03-19T08:17:47.005Z,60.64
2023-03-19T08:20:18.446Z,60.64
2023-03-19T08:22:49.568Z,60.43
2023-03-19T08:25:15.985Z,60.45
2023-03-19T08:27:42.506Z,60.35
2023-03-19T08:30:09.769Z,59.96
2023-03-19T08:32:37.214Z,60.02
2023-03-19T08:35:04.502Z,59.84
2023-03-19T08:37:30.828Z,59.79
2023-03-19T08:39:57.449Z,60.15
2023-03-19T08:42:23.876Z,59.92
2023-03-19T08:44:50.509Z,59.54
2023-03-19T08:47:17.186Z,59.53
2023-03-19T08:49:43.587Z,59.85
2023-03-19T08:52:10.048Z,59.45
2023-03-19T08:54:36.847Z,59.52
2023-03-19T08:57:03.685Z,59.47
2023-03-19T08:59:32.575Z,59.40
2023-03-19T09:02:00.336Z,59.22
2023-03-19T09:04:26.747Z,59.42
2023-03-19T09:06:53.200Z,59.12
2023-03-19T09:09:21.033Z,58.59
2023-03-19T09:11:47.793Z,58.47
2023-03-19T09:14:16.519Z,58.54
2023-03-19T09:16:43.571Z,58.73
2023-03-19T09:19:10.055Z,59.28
2023-03-19T09:21:36.932Z,59.16
2023-03-19T09:24:04.263Z,59.23
2023-03-19T09:26:31.128Z,59.66
2023-03-19T09:28:58.718Z,59.54
2023-03-19T09:31:27.235Z,59.63
2023-03-19T09:33:54.828Z,59.69
2023-03-19T09:36:21.178Z,59.58
2023-03-19T09:38:47.573Z,59.66
2023-03-19T09:41:26.611Z,59.92
2023-03-19T09:44:05.035Z,59.63
2023-03-19T09:46:36.593Z,59.68
2023-03-19T09:49:12.614Z,59.91
2023-03-19T09:51:44.838Z,59.77
2023-03-19T09:54:31.846Z,59.34
2023-03-19T09:56:58.588Z,58.75
2023-03-19T09:59:27.159Z,58.81
2023-03-19T10:02:21.590Z,58.64
2023-03-19T10:05:22.497Z,57.88
2023-03-19T10:08:03.607Z,57.63
2023-03-19T10:11:08.301Z,57.45
2023-03-19T10:13:43.705Z,57.75
2023-03-19T10:16:19.189Z,57.62
2023-03-19T10:18:49.943Z,57.57
2023-03-19T10:21:48.332Z,57.74
2023-03-19T10:24:37.000Z,58.15
2023-03-19T10:27:15.162Z,58.37
2023-03-19T10:29:42.086Z,58.27
2023-03-19T10:32:28.161Z,58.13
2023-03-19T10:34:58.311Z,58.47
2023-03-19T10:37:28.208Z,57.88
2023-03-19T10:39:57.523Z,58.03
2023-03-19T10:42:32.928Z,57.70
2023-03-19T10:45:05.721Z,57.82
2023-03-19T10:47:39.010Z,57.92
2023-03-19T10:50:06.095Z,57.63
2023-03-19T10:52:35.678Z,56.93
2023-03-19T10:55:14.926Z,56.54
2023-03-19T10:57:43.416Z,55.67
2023-03-19T11:00:20.462Z,55.64
2023-03-19T11:02:49.443Z,55.22
2023-03-19T11:05:24.764Z,55.11
2023-03-19T11:08:03.805Z,55.17
2023-03-19T11:10:33.374Z,55.09
2023-03-19T11:13:05.014Z,55.23
2023-03-19T11:15:38.060Z,55.07
2023-03-19T11:18:29.349Z,55.58
2023-03-19T11:21:05.373Z,56.17
2023-03-19T11:23:40.195Z,55.93
2023-03-19T11:26:07.207Z,55.92
2023-03-19T11:28:37.546Z,55.76
2023-03-19T11:31:41.766Z,55.57
2023-03-19T11:34:33.913Z,55.31
2023-03-19T11:37:03.395Z,54.85
2023-03-19T11:40:08.344Z,54.80
2023-03-19T11:42:37.192Z,54.31
2023-03-19T11:45:09.469Z,53.88
2023-03-19T11:47:47.701Z,54.11
2023-03-19T11:50:36.763Z,54.10
2023-03-19T11:53:18.345Z,54.25
2023-03-19T11:56:17.497Z,54.05
2023-03-19T11:58:58.477Z,54.35
2023-03-19T12:01:46.742Z,54.44
2023-03-19T12:04:25.885Z,54.15
2023-03-19T12:07:05.226Z,54.79
2023-03-19T12:09:49.811Z,54.89
2023-03-19T12:12:27.032Z,55.11
2023-03-19T12:15:14.298Z,54.90
2023-03-19T12:18:12.858Z,54.80
2023-03-19T12:20:55.111Z,54.46
2023-03-19T12:23:59.187Z,54.10
2023-03-19T12:26:50.954Z,54.18
2023-03-19T12:29:27.457Z,54.41
2023-03-19T12:32:25.426Z,54.23
2023-03-19T12:34:55.189Z,54.08
2023-03-19T12:37:42.452Z,54.34
2023-03-19T12:40:13.928Z,54.14
2023-03-19T12:42:42.071Z,53.65
2023-03-19T12:45:27.354Z,53.70
2023-03-19T12:48:01.363Z,53.04
2023-03-19T12:50:31.186Z,52.61
2023-03-19T12:53:00.447Z,51.80
2023-03-19T12:55:42.878Z,51.71
2023-03-19T12:58:34.137Z,51.51
2023-03-19T13:01:09.740Z,50.98
2023-03-19T13:03:52.345Z,50.80
2023-03-19T13:06:43.437Z,50.80
2023-03-19T13:09:31.431Z,50.81
2023-03-19T13:12:10.570Z,50.79
2023-03-19T13:14:55.077Z,50.78
2023-03-19T13:17:46.796Z,50.63
2023-03-19T13:20:47.178Z,50.70
2023-03-19T13:23:22.469Z,50.52
2023-03-19T13:25:50.392Z,50.34
2023-03-19T13:28:28.126Z,50.30
2023-03-19T13:31:08.317Z,50.06
2023-03-19T13:33:37.602Z,50.05
2023-03-19T13:36:14.871Z,50.08
2023-03-19T13:38:46.759Z,49.83
2023-03-19T13:41:39.088Z,50.01
2023-03-19T13:44:29.328Z,50.05
2023-03-19T13:46:55.701Z,49.76
2023-03-19T13:49:26.413Z,50.40
2023-03-19T13:51:59.967Z,50.11
2023-03-19T13:54:38.842Z,50.51
2023-03-19T13:57:06.691Z,51.17
2023-03-19T13:59:33.306Z,51.23
2023-03-19T14:02:01.311Z,50.99
2023-03-19T14:04:37.112Z,51.10
2023-03-19T14:07:15.433Z,51.13
2023-03-19T14:09:46.143Z,51.32
2023-03-19T14:12:15.227Z,51.21
2023-03-19T14:14:49.023Z,51.05
2023-03-19T14:17:20.014Z,50.61
2023-03-19T14:19:46.907Z,50.74
2023-03-19T14:22:16.408Z,50.88
2023-03-19T14:24:57.754Z,50.77
2023-03-19T14:27:32.852Z,50.26
2023-03-19T14:30:09.372Z,49.81
2023-03-19T14:32:42.505Z,49.49
2023-03-19T14:35:16.522Z,49.32
2023-03-19T14:37:49.775Z,49.03
2023-03-19T14:40:20.854Z,48.93
2023-03-19T14:42:55.911Z,49.03
2023-03-19T14:45:49.794Z,49.38
2023-03-19T14:48:58.072Z,49.52
2023-03-19T14:51:51.193Z,49.45
2023-03-19T14:54:42.555Z,49.27
2023-03-19T14:57:16.928Z,48.66
2023-03-19T14:59:43.434Z,47.99
2023-03-19T15:02:19.599Z,48.03
2023-03-19T15:04:48.183Z,48.09
2023-03-19T15:07:28.663Z,48.00
2023-03-19T15:09:55.830Z,47.70
2023-03-19T15:12:27.968Z,47.08
2023-03-19T15:15:09.988Z,47.27
2023-03-19T15:17:39.509Z,46.70
2023-03-19T15:20:21.793Z,46.95
2023-03-19T15:23:01.226Z,46.98
2023-03-19T15:25:28.189Z,46.89
2023-03-19T15:28:13.659Z,47.50
2023-03-19T15:30:53.751Z,46.84
2023-03-19T15:33:39.454Z,47.00
2023-03-19T15:36:24.382Z,46.67
2023-03-19T15:39:02.457Z,46.83
2023-03-19T15:41:32.069Z,46.68
2023-03-19T15:44:00.309Z,46.72
2023-03-19T15:46:33.172Z,46.73
2023-03-19T15:49:10.914Z,46.79
2023-03-19T15:51:38.114Z,46.71
2023-03-19T15:54:05.546Z,46.77
2023-03-19T15:56:32.523Z,46.45
2023-03-19T15:58:59.972Z,46.26
2023-03-19T16:01:27.443Z,45.96
2023-03-19T16:04:01.008Z,46.27
2023-03-19T16:06:33.009Z,46.22
2023-03-19T16:09:22.975Z,46.67
2023-03-19T16:11:49.885Z,46.53
2023-03-19T16:14:29.926Z,46.95
2023-03-19T16:17:02.188Z,46.86
2023-03-19T16:19:36.264Z,46.88
2023-03-19T16:22:12.623Z,46.72
2023-03-19T16:24:42.127Z,46.78
2023-03-19T16:27:13.265Z,46.89
2023-03-19T16:29:41.959Z,46.96
2023-03-19T16:32:19.433Z,46.81
2023-03-19T16:34:49.044Z,46.74
2023-03-19T16:37:40.067Z,46.92
2023-03-19T16:40:12.469Z,47.39
2023-03-19T16:42:39.492Z,47.50
2023-03-19T16:45:14.705Z,47.82
2023-03-19T16:47:42.182Z,47.78
2023-03-19T16:50:09.559Z,47.65
2023-03-19T16:52:38.450Z,47.54
2023-03-19T16:55:12.745Z,47.75
2023-03-19T16:57:39.092Z,47.50
2023-03-19T17:00:06.024Z,47.46
2023-03-19T17:02:32.446Z,47.17
2023-03-19T17:04:58.867Z,47.18
2023-03-19T17:07:25.441Z,47.32
2023-03-19T17:09:51.817Z,47.37
2023-03-19T17:12:18.294Z,47.34
2023-03-19T17:14:44.741Z,47.42
2023-03-19T17:17:19.305Z,47.80
2023-03-19T17:19:46.918Z,47.90
2023-03-19T17:22:14.293Z,47.96
2023-03-19T17:24:40.797Z,47.83
2023-03-19T17:27:07.204Z,47.97
2023-03-19T17:29:33.800Z,48.47
2023-03-19T17:32:04.220Z,48.31
2023-03-19T17:34:31.957Z,48.86
2023-03-19T17:37:03.929Z,48.75
2023-03-19T17:39:31.417Z,49.28
2023-03-19T17:41:57.772Z,49.59
2023-03-19T17:44:24.364Z,49.89
2023-03-19T17:46:53.279Z,50.05
2023-03-19T17:49:32.385Z,50.18
2023-03-19T17:51:59.442Z,50.58
2023-03-19T17:54:27.112Z,50.80
2023-03-19T17:56:54.477Z,50.90
2023-03-19T17:59:20.987Z,51.07
2023-03-19T18:01:47.448Z,51.32
2023-03-19T18:04:17.475Z,51.56
2023-03-19T18:06:54.023Z,51.81
2023-03-19T18:09:28.084Z,51.74
2023-03-19T18:11:55.532Z,52.23
2023-03-19T18:14:21.891Z,52.04
2023-03-19T18:16:48.465Z,52.52
2023-03-19T18:19:28.370Z,52.60
2023-03-19T18:21:54.932Z,52.57
2023-03-19T18:24:21.366Z,52.89
2023-03-19T18:26:47.828Z,53.32
2023-03-19T18:29:14.197Z,53.31
2023-03-19T18:31:44.023Z,53.20
2023-03-19T18:34:13.774Z,53.45
2023-03-19T18:36:41.224Z,53.90
2023-03-19T18:39:13.536Z,53.60
2023-03-19T18:41:40.897Z,53.68
2023-03-19T18:44:08.034Z,53.99
2023-03-19T18:46:36.754Z,54.27
2023-03-19T18:49:07.136Z,54.12
2023-03-19T18:51:33.647Z,54.49
2023-03-19T18:54:00.356Z,54.71
2023-03-19T18:56:30.317Z,54.69
2023-03-19T18:58:58.602Z,55.16
2023-03-19T19:01:25.870Z,55.62
2023-03-19T19:03:52.739Z,55.47
2023-03-19T19:06:28.287Z,55.85
2023-03-19T19:09:00.763Z,56.00
2023-03-19T19:11:27.382Z,55.74
2023-03-19T19:13:57.507Z,55.72
2023-03-19T19:16:28.133Z,55.66
2023-03-19T19:18:54.655Z,55.96
2023-03-19T19:21:21.102Z,56.61
2023-03-19T19:23:47.446Z,57.40
2023-03-19T19:26:25.223Z,57.69
2023-03-19T19:28:52.953Z,58.17
2023-03-19T19:31:31.561Z,58.34
2023-03-19T19:34:00.005Z,58.61
2023-03-19T19:36:27.640Z,58.58
2023-03-19T19:38:55.221Z,58.80
2023-03-19T19:41:24.500Z,59.06
2023-03-19T19:43:53.446Z,59.12
2023-03-19T19:46:22.374Z,59.46
2023-03-19T19:48:49.473Z,59.69
2023-03-19T19:51:27.735Z,59.33
2023-03-19T19:53:54.368Z,59.51
2023-03-19T19:56:23.549Z,59.65
2023-03-19T19:58:53.426Z,59.65
2023-03-19T20:01:22.792Z,59.83
2023-03-19T20:03:50.430Z,59.97
2023-03-19T20:06:17.660Z,59.99
2023-03-19T20:08:44.798Z,60.03
2023-03-19T20:11:23.319Z,60.01
2023-03-19T20:13:55.471Z,59.71
2023-03-19T20:16:24.456Z,59.96
2023-03-19T20:18:54.667Z,59.84
2023-03-19T20:21:22.459Z,59.84
2023-03-19T20:23:53.100Z,59.50
2023-03-19T20:26:22.264Z,59.27
2023-03-19T20:28:49.380Z,59.29
2023-03-19T20:31:19.535Z,59.32
2023-03-19T20:33:45.995Z,59.41
2023-03-19T20:36:15.618Z,59.38
2023-03-19T20:38:42.563Z,59.47
2023-03-19T20:41:21.613Z,59.32
2023-03-19T20:43:49.139Z,59.83
2023-03-19T20:46:16.215Z,59.80
2023-03-19T20:48:42.526Z,59.80
2023-03-19T20:51:18.004Z,59.61
2023-03-19T20:53:44.320Z,59.98
2023-03-19T20:56:15.899Z,59.83
2023-03-19T20:58:42.360Z,60.41
2023-03-19T21:01:09.733Z,60.42
2023-03-19T21:03:36.480Z,60.73
2023-03-19T21:06:06.065Z,60.73
2023-03-19T21:08:47.596Z,60.62
2023-03-19T21:11:19.141Z,61.00
2023-03-19T21:13:46.368Z,60.98
2023-03-19T21:16:17.991Z,60.70
2023-03-19T21:18:44.712Z,61.01
2023-03-19T21:21:13.590Z,60.91
2023-03-19T21:23:45.266Z,60.80
2023-03-19T21:26:17.444Z,60.69
2023-03-19T21:28:45.618Z,61.10
2023-03-19T21:31:20.415Z,60.59
2023-03-19T21:33:48.440Z,60.53
2023-03-19T21:36:15.255Z,60.61
2023-03-19T21:38:41.861Z,60.54
2023-03-19T21:41:22.356Z,60.37
2023-03-19T21:43:56.178Z,60.33
2023-03-19T21:46:26.546Z,60.45
2023-03-19T21:48:57.263Z,60.69
2023-03-19T21:51:24.994Z,60.83
2023-03-19T21:53:51.849Z,60.87
2023-03-19T21:56:22.075Z,60.66
2023-03-19T21:58:51.195Z,60.84
2023-03-19T22:01:24.249Z,60.98
2023-03-19T22:03:55.490Z,60.89
2023-03-19T22:06:22.481Z,60.98
2023-03-19T22:08:48.874Z,61.11
2023-03-19T22:11:24.249Z,61.01
2023-03-19T22:13:50.887Z,61.08
2023-03-19T22:16:20.402Z,61.17
2023-03-19T22:18:47.380Z,61.12
2023-03-19T22:21:16.330Z,61.06
2023-03-19T22:23:42.664Z,60.95
2023-03-19T22:26:33.796Z,60.84
2023-03-19T22:29:19.324Z,60.93
2023-03-19T22:31:48.881Z,60.74
2023-03-19T22:34:17.484Z,61.18
2023-03-19T22:36:44.330Z,61.17
2023-03-19T22:39:10.848Z,61.40
2023-03-19T22:41:40.076Z,61.32
2023-03-19T22:44:19.239Z,61.36
2023-03-19T22:46:46.118Z,61.49
2023-03-19T22:49:15.648Z,61.60
2023-03-19T22:51:43.526Z,61.28
2023-03-19T22:54:11.878Z,61.37
2023-03-19T22:56:38.504Z,61.22
2023-03-19T22:59:05.168Z,61.47
2023-03-19T23:01:36.317Z,61.49
2023-03-19T23:04:24.531Z,61.35
2023-03-19T23:06:52.709Z,61.15
2023-03-19T23:09:29.369Z,61.19
2023-03-19T23:11:57.703Z,61.23
2023-03-19T23:14:31.590Z,61.22
2023-03-19T23:17:01.942Z,61.26
2023-03-19T23:19:31.350Z,61.56
2023-03-19T23:21:59.698Z,61.84
2023-03-19T23:24:27.752Z,61.98
2023-03-19T23:26:55.848Z,61.95
2023-03-19T23:29:34.299Z,61.89
2023-03-19T23:32:00.762Z,62.02
2023-03-19T23:34:28.540Z,62.25
2023-03-19T23:36:56.177Z,61.96
2023-03-19T23:39:23.864Z,62.45
2023-03-19T23:41:54.347Z,62.42
2023-03-19T23:44:21.888Z,62.81
2023-03-19T23:46:50.760Z,62.41
2023-03-19T23:49:24.756Z,62.58
2023-03-19T23:51:51.483Z,62.56
2023-03-19T23:54:28.572Z,61.83
2023-03-19T23:57:01.066Z,61.85
2023-03-19T23:59:31.461Z,61.96
